Aviation Digital Data Service (ADDS)

Output produced by METARs form (0854 UTC 23 July 2019)
found at http://www.aviationweather.gov/metar/data/
 
Forecast for: LFBO (TOULOUSE/BLAGNAC, FR)
Text: TAF LFBO 230500Z 2306/2412 14010KT CAVOK
Forecast period: 0600 UTC 23 July 2019 to 0000 UTC 24 July 2019
Forecast type: FROM: standard forecast or significant change
Winds: from the SE (140 degrees) at 12 MPH (10 knots; 5.1 m/s)
Visibility: 6 or more miles 10+ km)
Ceiling: unknown
Clouds: missing
Weather: NSW  (no significant weather)
Text: TEMPO 2314/2319 14015G25KT
Forecast period: 1400 to 1900 UTC 23 July 2019
Forecast type: TEMPORARY: The following changes expected for less than half the time period
Winds: from the SE (140 degrees) at 17 MPH (15 knots; 7.7 m/s)
gusting to 29 MPH (25 knots; 12.9 m/s)
Visibility: missing
Ceiling: unknown
Clouds: missing
Weather: no significant weather forecast for this period
Text: BECMG 2400/2403 27009KT
Forecast period: 0000 to 1200 UTC 24 July 2019
Forecast type: BECOMING: Conditions expected to become as follows by 0300 UTC 24 July 2019
Winds: from the W (270 degrees) at 10 MPH (9 knots; 4.6 m/s)
Visibility: 6 or more miles 10+ km)
Ceiling: unknown
Clouds: missing
Weather: NSW  (no significant weather)